sensor_id;sensor_type;location;lat;lon;timestamp;P1;durP1;ratioP1;P2;durP2;ratioP2
8881;SDS011;4477;48.736;9.176;2023-04-03T00:00:12;4.50;;;4.10;;
8881;SDS011;4477;48.736;9.176;2023-04-03T00:02:39;5.53;;;4.23;;
8881;SDS011;4477;48.736;9.176;2023-04-03T00:05:07;5.67;;;4.20;;
8881;SDS011;4477;48.736;9.176;2023-04-03T00:07:35;4.23;;;3.83;;
8881;SDS011;4477;48.736;9.176;2023-04-03T00:10:03;4.70;;;4.30;;
8881;SDS011;4477;48.736;9.176;2023-04-03T00:12:30;7.50;;;4.50;;
8881;SDS011;4477;48.736;9.176;2023-04-03T00:14:57;4.50;;;4.10;;
8881;SDS011;4477;48.736;9.176;2023-04-03T00:17:25;4.73;;;4.00;;
8881;SDS011;4477;48.736;9.176;2023-04-03T00:19:52;4.60;;;4.20;;
8881;SDS011;4477;48.736;9.176;2023-04-03T00:22:19;4.60;;;4.10;;
8881;SDS011;4477;48.736;9.176;2023-04-03T00:24:48;5.33;;;4.03;;
8881;SDS011;4477;48.736;9.176;2023-04-03T00:27:15;4.90;;;4.40;;
8881;SDS011;4477;48.736;9.176;2023-04-03T00:29:42;5.77;;;4.10;;
8881;SDS011;4477;48.736;9.176;2023-04-03T00:32:09;4.70;;;4.10;;
8881;SDS011;4477;48.736;9.176;2023-04-03T00:34:37;4.33;;;3.93;;
8881;SDS011;4477;48.736;9.176;2023-04-03T00:37:05;4.73;;;4.33;;
8881;SDS011;4477;48.736;9.176;2023-04-03T00:39:32;5.47;;;4.07;;
8881;SDS011;4477;48.736;9.176;2023-04-03T00:42:02;5.20;;;4.60;;
8881;SDS011;4477;48.736;9.176;2023-04-03T00:47:33;4.60;;;4.10;;
8881;SDS011;4477;48.736;9.176;2023-04-03T00:50:02;5.63;;;4.30;;
8881;SDS011;4477;48.736;9.176;2023-04-03T00:52:31;4.53;;;4.13;;
8881;SDS011;4477;48.736;9.176;2023-04-03T00:55:02;5.50;;;4.30;;
8881;SDS011;4477;48.736;9.176;2023-04-03T00:57:34;4.83;;;4.33;;
8881;SDS011;4477;48.736;9.176;2023-04-03T01:00:03;4.20;;;3.77;;
8881;SDS011;4477;48.736;9.176;2023-04-03T01:02:34;4.10;;;3.70;;
8881;SDS011;4477;48.736;9.176;2023-04-03T01:05:02;5.13;;;4.63;;
8881;SDS011;4477;48.736;9.176;2023-04-03T01:07:30;5.00;;;4.23;;
8881;SDS011;4477;48.736;9.176;2023-04-03T01:10:00;4.57;;;4.13;;
8881;SDS011;4477;48.736;9.176;2023-04-03T01:12:29;5.10;;;4.33;;
8881;SDS011;4477;48.736;9.176;2023-04-03T01:15:03;5.20;;;4.67;;
8881;SDS011;4477;48.736;9.176;2023-04-03T01:17:36;4.23;;;3.93;;
8881;SDS011;4477;48.736;9.176;2023-04-03T01:20:14;4.60;;;4.20;;
8881;SDS011;4477;48.736;9.176;2023-04-03T01:23:11;4.80;;;4.40;;
8881;SDS011;4477;48.736;9.176;2023-04-03T01:25:52;4.63;;;4.23;;
8881;SDS011;4477;48.736;9.176;2023-04-03T01:28:21;4.90;;;4.10;;
8881;SDS011;4477;48.736;9.176;2023-04-03T01:30:53;4.43;;;3.93;;
8881;SDS011;4477;48.736;9.176;2023-04-03T01:33:31;4.77;;;4.30;;
8881;SDS011;4477;48.736;9.176;2023-04-03T01:35:58;4.73;;;4.10;;
8881;SDS011;4477;48.736;9.176;2023-04-03T01:38:25;4.50;;;4.10;;
8881;SDS011;4477;48.736;9.176;2023-04-03T01:40:52;4.80;;;4.13;;
8881;SDS011;4477;48.736;9.176;2023-04-03T01:43:19;4.93;;;4.43;;
8881;SDS011;4477;48.736;9.176;2023-04-03T01:45:48;4.90;;;4.40;;
8881;SDS011;4477;48.736;9.176;2023-04-03T01:48:15;6.63;;;4.30;;
8881;SDS011;4477;48.736;9.176;2023-04-03T01:50:44;4.43;;;4.03;;
8881;SDS011;4477;48.736;9.176;2023-04-03T01:53:11;4.57;;;4.00;;
8881;SDS011;4477;48.736;9.176;2023-04-03T01:55:39;5.53;;;3.73;;
8881;SDS011;4477;48.736;9.176;2023-04-03T01:58:06;5.17;;;4.10;;
8881;SDS011;4477;48.736;9.176;2023-04-03T02:00:33;5.17;;;4.07;;
8881;SDS011;4477;48.736;9.176;2023-04-03T02:03:01;3.93;;;3.60;;
8881;SDS011;4477;48.736;9.176;2023-04-03T02:05:28;4.73;;;4.33;;
8881;SDS011;4477;48.736;9.176;2023-04-03T02:07:56;4.77;;;4.10;;
8881;SDS011;4477;48.736;9.176;2023-04-03T02:10:23;4.87;;;4.43;;
8881;SDS011;4477;48.736;9.176;2023-04-03T02:12:50;6.00;;;4.70;;
8881;SDS011;4477;48.736;9.176;2023-04-03T02:15:17;6.17;;;4.60;;
8881;SDS011;4477;48.736;9.176;2023-04-03T02:17:45;4.40;;;3.80;;
8881;SDS011;4477;48.736;9.176;2023-04-03T02:20:12;4.87;;;4.13;;
8881;SDS011;4477;48.736;9.176;2023-04-03T02:22:39;4.53;;;3.97;;
8881;SDS011;4477;48.736;9.176;2023-04-03T02:25:08;4.83;;;4.10;;
8881;SDS011;4477;48.736;9.176;2023-04-03T02:27:35;4.80;;;3.97;;
8881;SDS011;4477;48.736;9.176;2023-04-03T02:30:03;5.07;;;4.03;;
8881;SDS011;4477;48.736;9.176;2023-04-03T02:32:31;4.37;;;3.97;;
8881;SDS011;4477;48.736;9.176;2023-04-03T02:34:58;4.07;;;3.77;;
8881;SDS011;4477;48.736;9.176;2023-04-03T02:37:25;4.20;;;3.80;;
8881;SDS011;4477;48.736;9.176;2023-04-03T02:39:51;4.47;;;4.07;;
8881;SDS011;4477;48.736;9.176;2023-04-03T02:42:20;5.97;;;3.90;;
8881;SDS011;4477;48.736;9.176;2023-04-03T02:44:47;4.47;;;4.07;;
8881;SDS011;4477;48.736;9.176;2023-04-03T02:47:13;4.13;;;3.70;;
8881;SDS011;4477;48.736;9.176;2023-04-03T02:49:40;4.30;;;3.90;;
8881;SDS011;4477;48.736;9.176;2023-04-03T02:52:10;5.03;;;4.20;;
8881;SDS011;4477;48.736;9.176;2023-04-03T02:54:38;4.57;;;4.17;;
8881;SDS011;4477;48.736;9.176;2023-04-03T02:57:07;5.07;;;3.70;;
8881;SDS011;4477;48.736;9.176;2023-04-03T02:59:36;4.07;;;3.40;;
8881;SDS011;4477;48.736;9.176;2023-04-03T03:02:05;4.10;;;3.80;;
8881;SDS011;4477;48.736;9.176;2023-04-03T03:04:32;4.10;;;3.70;;
8881;SDS011;4477;48.736;9.176;2023-04-03T03:07:00;5.40;;;4.10;;
8881;SDS011;4477;48.736;9.176;2023-04-03T03:09:29;5.93;;;4.20;;
8881;SDS011;4477;48.736;9.176;2023-04-03T03:11:56;4.53;;;4.13;;
8881;SDS011;4477;48.736;9.176;2023-04-03T03:14:23;5.20;;;4.00;;
8881;SDS011;4477;48.736;9.176;2023-04-03T03:16:52;4.40;;;4.00;;
8881;SDS011;4477;48.736;9.176;2023-04-03T03:19:18;4.67;;;4.13;;
8881;SDS011;4477;48.736;9.176;2023-04-03T03:21:45;5.20;;;4.07;;
8881;SDS011;4477;48.736;9.176;2023-04-03T03:24:12;5.97;;;4.10;;
8881;SDS011;4477;48.736;9.176;2023-04-03T03:26:40;4.80;;;4.40;;
8881;SDS011;4477;48.736;9.176;2023-04-03T03:29:08;5.00;;;4.00;;
8881;SDS011;4477;48.736;9.176;2023-04-03T03:31:34;4.67;;;3.60;;
8881;SDS011;4477;48.736;9.176;2023-04-03T03:34:03;4.60;;;4.20;;
8881;SDS011;4477;48.736;9.176;2023-04-03T03:36:30;4.13;;;3.70;;
8881;SDS011;4477;48.736;9.176;2023-04-03T03:38:57;5.90;;;3.90;;
8881;SDS011;4477;48.736;9.176;2023-04-03T03:41:24;4.53;;;3.80;;
8881;SDS011;4477;48.736;9.176;2023-04-03T03:43:51;5.23;;;4.20;;
8881;SDS011;4477;48.736;9.176;2023-04-03T03:46:18;4.03;;;3.50;;
8881;SDS011;4477;48.736;9.176;2023-04-03T03:48:45;5.10;;;4.07;;
8881;SDS011;4477;48.736;9.176;2023-04-03T03:51:13;4.23;;;3.77;;
8881;SDS011;4477;48.736;9.176;2023-04-03T03:53:41;4.60;;;3.80;;
8881;SDS011;4477;48.736;9.176;2023-04-03T03:56:08;5.67;;;3.97;;
8881;SDS011;4477;48.736;9.176;2023-04-03T03:58:35;4.43;;;3.63;;
8881;SDS011;4477;48.736;9.176;2023-04-03T04:01:02;5.10;;;3.73;;
8881;SDS011;4477;48.736;9.176;2023-04-03T04:03:30;5.67;;;3.97;;
8881;SDS011;4477;48.736;9.176;2023-04-03T04:05:57;4.20;;;3.80;;
8881;SDS011;4477;48.736;9.176;2023-04-03T04:08:25;4.40;;;4.00;;
8881;SDS011;4477;48.736;9.176;2023-04-03T04:10:52;5.53;;;3.73;;
8881;SDS011;4477;48.736;9.176;2023-04-03T04:13:19;4.80;;;4.40;;
8881;SDS011;4477;48.736;9.176;2023-04-03T04:15:46;8.77;;;6.03;;
8881;SDS011;4477;48.736;9.176;2023-04-03T04:18:13;5.70;;;4.50;;
8881;SDS011;4477;48.736;9.176;2023-04-03T04:20:40;10.60;;;7.00;;
8881;SDS011;4477;48.736;9.176;2023-04-03T04:23:07;27.70;;;15.30;;
8881;SDS011;4477;48.736;9.176;2023-04-03T04:25:35;30.07;;;16.43;;
8881;SDS011;4477;48.736;9.176;2023-04-03T04:28:02;11.83;;;7.37;;
8881;SDS011;4477;48.736;9.176;2023-04-03T04:30:29;15.63;;;9.93;;
8881;SDS011;4477;48.736;9.176;2023-04-03T04:32:56;9.43;;;6.13;;
8881;SDS011;4477;48.736;9.176;2023-04-03T04:35:23;14.57;;;9.70;;
8881;SDS011;4477;48.736;9.176;2023-04-03T04:37:50;12.30;;;8.67;;
8881;SDS011;4477;48.736;9.176;2023-04-03T04:40:17;7.80;;;5.90;;
8881;SDS011;4477;48.736;9.176;2023-04-03T04:42:45;6.73;;;6.03;;
8881;SDS011;4477;48.736;9.176;2023-04-03T04:45:12;7.63;;;5.50;;
8881;SDS011;4477;48.736;9.176;2023-04-03T04:47:39;9.73;;;7.47;;
8881;SDS011;4477;48.736;9.176;2023-04-03T04:50:07;9.20;;;7.30;;
8881;SDS011;4477;48.736;9.176;2023-04-03T04:52:34;5.23;;;3.77;;
8881;SDS011;4477;48.736;9.176;2023-04-03T04:55:01;4.57;;;3.20;;
8881;SDS011;4477;48.736;9.176;2023-04-03T04:57:30;5.30;;;4.43;;
8881;SDS011;4477;48.736;9.176;2023-04-03T04:59:58;5.60;;;4.40;;
8881;SDS011;4477;48.736;9.176;2023-04-03T05:02:25;4.83;;;4.33;;
8881;SDS011;4477;48.736;9.176;2023-04-03T05:04:52;4.57;;;3.80;;
8881;SDS011;4477;48.736;9.176;2023-04-03T05:07:19;3.77;;;3.40;;
8881;SDS011;4477;48.736;9.176;2023-04-03T05:09:46;4.33;;;3.67;;
8881;SDS011;4477;48.736;9.176;2023-04-03T05:12:13;5.87;;;4.70;;
8881;SDS011;4477;48.736;9.176;2023-04-03T05:14:40;6.47;;;5.27;;
8881;SDS011;4477;48.736;9.176;2023-04-03T05:17:08;3.50;;;3.20;;
8881;SDS011;4477;48.736;9.176;2023-04-03T05:19:35;5.97;;;4.40;;
8881;SDS011;4477;48.736;9.176;2023-04-03T05:22:02;3.70;;;3.40;;
8881;SDS011;4477;48.736;9.176;2023-04-03T05:24:29;3.77;;;3.47;;
8881;SDS011;4477;48.736;9.176;2023-04-03T05:26:56;4.43;;;2.97;;
8881;SDS011;4477;48.736;9.176;2023-04-03T05:29:25;6.13;;;3.83;;
8881;SDS011;4477;48.736;9.176;2023-04-03T05:31:53;6.47;;;5.23;;
8881;SDS011;4477;48.736;9.176;2023-04-03T05:34:21;4.23;;;3.83;;
8881;SDS011;4477;48.736;9.176;2023-04-03T05:36:48;4.97;;;3.00;;
8881;SDS011;4477;48.736;9.176;2023-04-03T05:39:15;3.20;;;2.90;;
8881;SDS011;4477;48.736;9.176;2023-04-03T05:41:42;2.60;;;2.40;;
8881;SDS011;4477;48.736;9.176;2023-04-03T05:44:09;4.47;;;2.90;;
8881;SDS011;4477;48.736;9.176;2023-04-03T05:46:36;3.03;;;2.73;;
8881;SDS011;4477;48.736;9.176;2023-04-03T05:49:03;3.10;;;2.80;;
8881;SDS011;4477;48.736;9.176;2023-04-03T05:51:33;3.67;;;2.90;;
8881;SDS011;4477;48.736;9.176;2023-04-03T05:54:02;5.77;;;3.23;;
8881;SDS011;4477;48.736;9.176;2023-04-03T05:56:32;5.00;;;3.30;;
8881;SDS011;4477;48.736;9.176;2023-04-03T05:58:59;5.00;;;3.43;;
8881;SDS011;4477;48.736;9.176;2023-04-03T06:01:28;4.17;;;3.77;;
8881;SDS011;4477;48.736;9.176;2023-04-03T06:03:55;5.27;;;3.40;;
8881;SDS011;4477;48.736;9.176;2023-04-03T06:06:23;4.77;;;3.60;;
8881;SDS011;4477;48.736;9.176;2023-04-03T06:08:52;3.80;;;3.50;;
8881;SDS011;4477;48.736;9.176;2023-04-03T06:11:21;3.60;;;3.30;;
8881;SDS011;4477;48.736;9.176;2023-04-03T06:13:48;4.47;;;3.43;;
8881;SDS011;4477;48.736;9.176;2023-04-03T06:16:16;5.70;;;4.10;;
8881;SDS011;4477;48.736;9.176;2023-04-03T06:18:46;3.27;;;3.00;;
8881;SDS011;4477;48.736;9.176;2023-04-03T06:21:13;3.50;;;3.20;;
8881;SDS011;4477;48.736;9.176;2023-04-03T06:23:40;3.53;;;3.20;;
8881;SDS011;4477;48.736;9.176;2023-04-03T06:26:09;3.47;;;3.17;;
8881;SDS011;4477;48.736;9.176;2023-04-03T06:28:36;3.50;;;3.20;;
8881;SDS011;4477;48.736;9.176;2023-04-03T06:31:03;3.37;;;3.00;;
8881;SDS011;4477;48.736;9.176;2023-04-03T06:33:30;4.30;;;2.70;;
8881;SDS011;4477;48.736;9.176;2023-04-03T06:35:57;4.07;;;2.90;;
8881;SDS011;4477;48.736;9.176;2023-04-03T06:38:25;5.40;;;3.50;;
8881;SDS011;4477;48.736;9.176;2023-04-03T06:40:52;2.83;;;2.60;;
8881;SDS011;4477;48.736;9.176;2023-04-03T06:43:22;4.17;;;3.07;;
8881;SDS011;4477;48.736;9.176;2023-04-03T06:45:50;4.00;;;2.90;;
8881;SDS011;4477;48.736;9.176;2023-04-03T06:48:17;4.60;;;3.23;;
8881;SDS011;4477;48.736;9.176;2023-04-03T06:50:44;6.13;;;3.13;;
8881;SDS011;4477;48.736;9.176;2023-04-03T06:53:11;4.37;;;3.07;;
8881;SDS011;4477;48.736;9.176;2023-04-03T06:55:38;4.23;;;3.00;;
8881;SDS011;4477;48.736;9.176;2023-04-03T06:58:06;3.40;;;3.10;;
8881;SDS011;4477;48.736;9.176;2023-04-03T07:00:35;4.77;;;3.80;;
8881;SDS011;4477;48.736;9.176;2023-04-03T07:03:03;4.27;;;3.10;;
8881;SDS011;4477;48.736;9.176;2023-04-03T07:05:30;6.43;;;4.10;;
8881;SDS011;4477;48.736;9.176;2023-04-03T07:07:59;7.10;;;4.60;;
8881;SDS011;4477;48.736;9.176;2023-04-03T07:10:26;7.27;;;4.67;;
8881;SDS011;4477;48.736;9.176;2023-04-03T07:12:53;4.43;;;3.60;;
8881;SDS011;4477;48.736;9.176;2023-04-03T07:15:20;3.73;;;3.40;;
8881;SDS011;4477;48.736;9.176;2023-04-03T07:17:49;4.93;;;3.80;;
8881;SDS011;4477;48.736;9.176;2023-04-03T07:20:16;5.40;;;4.00;;
8881;SDS011;4477;48.736;9.176;2023-04-03T07:22:44;4.33;;;3.40;;
8881;SDS011;4477;48.736;9.176;2023-04-03T07:25:11;5.10;;;3.20;;
8881;SDS011;4477;48.736;9.176;2023-04-03T07:27:38;5.10;;;3.47;;
8881;SDS011;4477;48.736;9.176;2023-04-03T07:30:06;6.00;;;3.40;;
8881;SDS011;4477;48.736;9.176;2023-04-03T07:32:34;12.87;;;11.00;;
8881;SDS011;4477;48.736;9.176;2023-04-03T07:35:03;8.60;;;5.20;;
8881;SDS011;4477;48.736;9.176;2023-04-03T07:37:30;3.73;;;3.27;;
8881;SDS011;4477;48.736;9.176;2023-04-03T07:39:58;7.43;;;4.70;;
8881;SDS011;4477;48.736;9.176;2023-04-03T07:42:27;5.33;;;3.40;;
8881;SDS011;4477;48.736;9.176;2023-04-03T07:44:54;4.83;;;3.47;;
8881;SDS011;4477;48.736;9.176;2023-04-03T07:47:22;5.93;;;4.30;;
8881;SDS011;4477;48.736;9.176;2023-04-03T07:49:49;7.50;;;4.37;;
8881;SDS011;4477;48.736;9.176;2023-04-03T07:52:18;9.03;;;5.70;;
8881;SDS011;4477;48.736;9.176;2023-04-03T07:54:45;6.83;;;4.17;;
8881;SDS011;4477;48.736;9.176;2023-04-03T07:57:12;3.83;;;2.70;;
8881;SDS011;4477;48.736;9.176;2023-04-03T07:59:39;3.17;;;2.87;;
8881;SDS011;4477;48.736;9.176;2023-04-03T08:02:09;5.20;;;3.33;;
8881;SDS011;4477;48.736;9.176;2023-04-03T08:04:36;6.67;;;3.87;;
8881;SDS011;4477;48.736;9.176;2023-04-03T08:07:04;4.70;;;3.10;;
8881;SDS011;4477;48.736;9.176;2023-04-03T08:09:34;8.37;;;4.93;;
8881;SDS011;4477;48.736;9.176;2023-04-03T08:12:01;7.27;;;4.73;;
8881;SDS011;4477;48.736;9.176;2023-04-03T08:14:30;6.10;;;4.37;;
8881;SDS011;4477;48.736;9.176;2023-04-03T08:16:59;5.37;;;2.90;;
8881;SDS011;4477;48.736;9.176;2023-04-03T08:19:29;9.67;;;5.10;;
8881;SDS011;4477;48.736;9.176;2023-04-03T08:21:56;5.90;;;3.80;;
8881;SDS011;4477;48.736;9.176;2023-04-03T08:24:25;6.20;;;3.50;;
8881;SDS011;4477;48.736;9.176;2023-04-03T08:26:53;4.13;;;3.20;;
8881;SDS011;4477;48.736;9.176;2023-04-03T08:29:21;3.53;;;2.30;;
8881;SDS011;4477;48.736;9.176;2023-04-03T08:31:48;5.80;;;2.87;;
8881;SDS011;4477;48.736;9.176;2023-04-03T08:34:15;4.17;;;2.67;;
8881;SDS011;4477;48.736;9.176;2023-04-03T08:36:43;3.87;;;2.63;;
8881;SDS011;4477;48.736;9.176;2023-04-03T08:39:10;2.87;;;2.57;;
8881;SDS011;4477;48.736;9.176;2023-04-03T08:41:38;4.00;;;2.53;;
8881;SDS011;4477;48.736;9.176;2023-04-03T08:44:13;5.07;;;3.47;;
8881;SDS011;4477;48.736;9.176;2023-04-03T08:46:47;3.53;;;2.60;;
8881;SDS011;4477;48.736;9.176;2023-04-03T08:49:18;5.00;;;2.67;;
8881;SDS011;4477;48.736;9.176;2023-04-03T08:51:49;4.83;;;2.30;;
8881;SDS011;4477;48.736;9.176;2023-04-03T08:54:20;4.63;;;2.50;;
8881;SDS011;4477;48.736;9.176;2023-04-03T08:56:50;3.43;;;2.60;;
8881;SDS011;4477;48.736;9.176;2023-04-03T08:59:19;4.83;;;2.63;;
8881;SDS011;4477;48.736;9.176;2023-04-03T09:01:51;3.37;;;2.60;;
8881;SDS011;4477;48.736;9.176;2023-04-03T09:04:19;3.27;;;2.40;;
8881;SDS011;4477;48.736;9.176;2023-04-03T09:06:48;4.93;;;2.40;;
8881;SDS011;4477;48.736;9.176;2023-04-03T09:09:21;3.20;;;2.47;;
8881;SDS011;4477;48.736;9.176;2023-04-03T09:11:53;3.73;;;2.33;;
8881;SDS011;4477;48.736;9.176;2023-04-03T09:14:24;3.53;;;2.43;;
8881;SDS011;4477;48.736;9.176;2023-04-03T09:16:54;2.90;;;2.60;;
8881;SDS011;4477;48.736;9.176;2023-04-03T09:19:25;3.20;;;2.70;;
8881;SDS011;4477;48.736;9.176;2023-04-03T09:21:56;4.17;;;2.77;;
8881;SDS011;4477;48.736;9.176;2023-04-03T09:24:23;4.20;;;2.50;;
8881;SDS011;4477;48.736;9.176;2023-04-03T09:26:51;4.47;;;2.30;;
8881;SDS011;4477;48.736;9.176;2023-04-03T09:29:22;4.30;;;2.23;;
8881;SDS011;4477;48.736;9.176;2023-04-03T09:31:52;4.47;;;2.40;;
8881;SDS011;4477;48.736;9.176;2023-04-03T09:34:20;2.47;;;2.27;;
8881;SDS011;4477;48.736;9.176;2023-04-03T09:36:49;2.83;;;2.13;;
8881;SDS011;4477;48.736;9.176;2023-04-03T09:39:18;4.37;;;2.40;;
8881;SDS011;4477;48.736;9.176;2023-04-03T09:41:55;3.53;;;2.33;;
8881;SDS011;4477;48.736;9.176;2023-04-03T09:44:24;2.57;;;2.00;;
8881;SDS011;4477;48.736;9.176;2023-04-03T09:46:53;3.40;;;2.40;;
8881;SDS011;4477;48.736;9.176;2023-04-03T09:49:20;3.63;;;2.40;;
8881;SDS011;4477;48.736;9.176;2023-04-03T09:51:48;2.60;;;2.33;;
8881;SDS011;4477;48.736;9.176;2023-04-03T09:57:07;3.90;;;2.37;;
8881;SDS011;4477;48.736;9.176;2023-04-03T09:59:35;4.53;;;2.90;;
8881;SDS011;4477;48.736;9.176;2023-04-03T10:02:21;2.70;;;2.23;;
8881;SDS011;4477;48.736;9.176;2023-04-03T10:04:49;3.63;;;2.60;;
8881;SDS011;4477;48.736;9.176;2023-04-03T10:07:26;3.37;;;2.80;;
8881;SDS011;4477;48.736;9.176;2023-04-03T10:09:55;5.10;;;2.80;;
8881;SDS011;4477;48.736;9.176;2023-04-03T10:12:23;2.63;;;2.43;;
8881;SDS011;4477;48.736;9.176;2023-04-03T10:14:54;3.30;;;2.53;;
8881;SDS011;4477;48.736;9.176;2023-04-03T10:17:24;2.60;;;2.03;;
8881;SDS011;4477;48.736;9.176;2023-04-03T10:19:55;3.10;;;2.17;;
8881;SDS011;4477;48.736;9.176;2023-04-03T10:22:25;2.20;;;2.00;;
8881;SDS011;4477;48.736;9.176;2023-04-03T10:25:01;4.10;;;2.00;;
8881;SDS011;4477;48.736;9.176;2023-04-03T10:27:32;2.80;;;2.20;;
8881;SDS011;4477;48.736;9.176;2023-04-03T10:30:04;6.13;;;2.97;;
8881;SDS011;4477;48.736;9.176;2023-04-03T10:32:44;3.57;;;2.33;;
8881;SDS011;4477;48.736;9.176;2023-04-03T10:35:15;3.13;;;2.33;;
8881;SDS011;4477;48.736;9.176;2023-04-03T10:37:49;3.03;;;2.43;;
8881;SDS011;4477;48.736;9.176;2023-04-03T10:40:22;3.43;;;2.30;;
8881;SDS011;4477;48.736;9.176;2023-04-03T10:42:53;3.07;;;2.00;;
8881;SDS011;4477;48.736;9.176;2023-04-03T10:45:25;2.97;;;2.17;;
8881;SDS011;4477;48.736;9.176;2023-04-03T10:47:58;4.10;;;1.90;;
8881;SDS011;4477;48.736;9.176;2023-04-03T10:50:30;2.93;;;2.07;;
8881;SDS011;4477;48.736;9.176;2023-04-03T10:53:01;3.03;;;2.30;;
8881;SDS011;4477;48.736;9.176;2023-04-03T10:55:32;2.73;;;2.10;;
8881;SDS011;4477;48.736;9.176;2023-04-03T10:58:01;3.30;;;2.27;;
8881;SDS011;4477;48.736;9.176;2023-04-03T11:00:30;3.70;;;2.07;;
8881;SDS011;4477;48.736;9.176;2023-04-03T11:03:05;3.83;;;2.30;;
8881;SDS011;4477;48.736;9.176;2023-04-03T11:05:34;2.50;;;2.07;;
8881;SDS011;4477;48.736;9.176;2023-04-03T11:08:04;3.67;;;2.37;;
8881;SDS011;4477;48.736;9.176;2023-04-03T11:10:35;2.80;;;2.43;;
8881;SDS011;4477;48.736;9.176;2023-04-03T11:13:06;3.43;;;2.33;;
8881;SDS011;4477;48.736;9.176;2023-04-03T11:15:37;2.67;;;2.27;;
8881;SDS011;4477;48.736;9.176;2023-04-03T11:18:08;2.17;;;1.97;;
8881;SDS011;4477;48.736;9.176;2023-04-03T11:20:37;3.93;;;2.17;;
8881;SDS011;4477;48.736;9.176;2023-04-03T11:23:11;2.40;;;2.20;;
8881;SDS011;4477;48.736;9.176;2023-04-03T11:25:42;4.70;;;2.23;;
8881;SDS011;4477;48.736;9.176;2023-04-03T11:28:11;3.23;;;2.10;;
8881;SDS011;4477;48.736;9.176;2023-04-03T11:30:41;3.77;;;2.10;;
8881;SDS011;4477;48.736;9.176;2023-04-03T11:35:57;3.90;;;2.23;;
8881;SDS011;4477;48.736;9.176;2023-04-03T11:38:26;2.23;;;2.03;;
8881;SDS011;4477;48.736;9.176;2023-04-03T11:40:54;2.37;;;1.50;;
8881;SDS011;4477;48.736;9.176;2023-04-03T11:43:23;2.73;;;1.70;;
8881;SDS011;4477;48.736;9.176;2023-04-03T11:45:55;2.30;;;1.73;;
8881;SDS011;4477;48.736;9.176;2023-04-03T11:54:00;2.53;;;1.70;;
8881;SDS011;4477;48.736;9.176;2023-04-03T11:56:48;4.47;;;1.87;;
8881;SDS011;4477;48.736;9.176;2023-04-03T11:59:19;1.93;;;1.43;;
8881;SDS011;4477;48.736;9.176;2023-04-03T12:01:48;3.57;;;2.10;;
8881;SDS011;4477;48.736;9.176;2023-04-03T12:04:17;3.07;;;2.00;;
8881;SDS011;4477;48.736;9.176;2023-04-03T12:06:49;3.83;;;2.20;;
8881;SDS011;4477;48.736;9.176;2023-04-03T12:09:23;2.67;;;1.90;;
8881;SDS011;4477;48.736;9.176;2023-04-03T12:11:52;1.93;;;1.73;;
8881;SDS011;4477;48.736;9.176;2023-04-03T12:14:22;3.80;;;2.10;;
8881;SDS011;4477;48.736;9.176;2023-04-03T12:16:50;3.53;;;2.17;;
8881;SDS011;4477;48.736;9.176;2023-04-03T12:19:30;3.90;;;2.20;;
8881;SDS011;4477;48.736;9.176;2023-04-03T12:22:08;2.70;;;2.17;;
8881;SDS011;4477;48.736;9.176;2023-04-03T12:24:37;5.20;;;2.20;;
8881;SDS011;4477;48.736;9.176;2023-04-03T12:29:55;4.03;;;2.07;;
8881;SDS011;4477;48.736;9.176;2023-04-03T12:32:26;2.20;;;1.97;;
8881;SDS011;4477;48.736;9.176;2023-04-03T12:35:09;2.83;;;2.07;;
8881;SDS011;4477;48.736;9.176;2023-04-03T12:37:44;3.13;;;2.00;;
8881;SDS011;4477;48.736;9.176;2023-04-03T12:40:19;2.90;;;1.80;;
8881;SDS011;4477;48.736;9.176;2023-04-03T12:42:55;2.50;;;2.03;;
8881;SDS011;4477;48.736;9.176;2023-04-03T12:45:26;3.03;;;2.07;;
8881;SDS011;4477;48.736;9.176;2023-04-03T12:47:55;2.97;;;1.63;;
8881;SDS011;4477;48.736;9.176;2023-04-03T12:50:27;5.10;;;2.17;;
8881;SDS011;4477;48.736;9.176;2023-04-03T12:52:57;4.40;;;2.10;;
8881;SDS011;4477;48.736;9.176;2023-04-03T12:55:28;2.63;;;1.60;;
8881;SDS011;4477;48.736;9.176;2023-04-03T12:57:55;3.30;;;2.10;;
8881;SDS011;4477;48.736;9.176;2023-04-03T13:00:27;2.73;;;2.10;;
8881;SDS011;4477;48.736;9.176;2023-04-03T13:02:55;2.53;;;1.90;;
8881;SDS011;4477;48.736;9.176;2023-04-03T13:05:22;3.20;;;1.70;;
8881;SDS011;4477;48.736;9.176;2023-04-03T13:07:52;2.07;;;1.87;;
8881;SDS011;4477;48.736;9.176;2023-04-03T13:10:20;2.80;;;1.97;;
8881;SDS011;4477;48.736;9.176;2023-04-03T13:12:49;3.13;;;1.83;;
8881;SDS011;4477;48.736;9.176;2023-04-03T13:15:18;3.43;;;2.20;;
8881;SDS011;4477;48.736;9.176;2023-04-03T13:17:46;3.23;;;2.00;;
8881;SDS011;4477;48.736;9.176;2023-04-03T13:20:17;4.33;;;2.27;;
8881;SDS011;4477;48.736;9.176;2023-04-03T13:22:49;6.70;;;4.13;;
8881;SDS011;4477;48.736;9.176;2023-04-03T13:25:18;3.73;;;2.37;;
8881;SDS011;4477;48.736;9.176;2023-04-03T13:27:46;4.33;;;1.83;;
8881;SDS011;4477;48.736;9.176;2023-04-03T13:30:29;4.60;;;2.67;;
8881;SDS011;4477;48.736;9.176;2023-04-03T13:32:58;7.33;;;5.23;;
8881;SDS011;4477;48.736;9.176;2023-04-03T13:35:28;5.27;;;4.03;;
8881;SDS011;4477;48.736;9.176;2023-04-03T13:37:57;3.63;;;2.97;;
8881;SDS011;4477;48.736;9.176;2023-04-03T13:40:24;3.07;;;2.20;;
8881;SDS011;4477;48.736;9.176;2023-04-03T13:42:58;3.07;;;2.60;;
8881;SDS011;4477;48.736;9.176;2023-04-03T13:45:32;3.47;;;2.60;;
8881;SDS011;4477;48.736;9.176;2023-04-03T13:48:07;2.93;;;2.30;;
8881;SDS011;4477;48.736;9.176;2023-04-03T13:50:50;3.17;;;1.90;;
8881;SDS011;4477;48.736;9.176;2023-04-03T13:53:20;4.03;;;2.63;;
8881;SDS011;4477;48.736;9.176;2023-04-03T13:55:55;3.43;;;2.57;;
8881;SDS011;4477;48.736;9.176;2023-04-03T13:58:25;3.23;;;1.80;;
8881;SDS011;4477;48.736;9.176;2023-04-03T14:00:55;3.50;;;2.20;;
8881;SDS011;4477;48.736;9.176;2023-04-03T14:03:28;4.50;;;4.00;;
8881;SDS011;4477;48.736;9.176;2023-04-03T14:05:58;4.00;;;2.87;;
8881;SDS011;4477;48.736;9.176;2023-04-03T14:08:26;2.87;;;2.30;;
8881;SDS011;4477;48.736;9.176;2023-04-03T14:10:53;2.23;;;2.00;;
8881;SDS011;4477;48.736;9.176;2023-04-03T14:13:21;6.57;;;4.57;;
8881;SDS011;4477;48.736;9.176;2023-04-03T14:15:48;3.97;;;2.50;;
8881;SDS011;4477;48.736;9.176;2023-04-03T14:18:17;4.03;;;2.50;;
8881;SDS011;4477;48.736;9.176;2023-04-03T14:20:45;2.67;;;2.43;;
8881;SDS011;4477;48.736;9.176;2023-04-03T14:23:12;4.23;;;2.30;;
8881;SDS011;4477;48.736;9.176;2023-04-03T14:25:40;3.20;;;2.40;;
8881;SDS011;4477;48.736;9.176;2023-04-03T14:28:13;4.30;;;3.13;;
8881;SDS011;4477;48.736;9.176;2023-04-03T14:30:40;3.57;;;2.90;;
8881;SDS011;4477;48.736;9.176;2023-04-03T14:33:09;4.97;;;2.37;;
8881;SDS011;4477;48.736;9.176;2023-04-03T14:35:38;3.93;;;2.47;;
8881;SDS011;4477;48.736;9.176;2023-04-03T14:38:09;3.67;;;2.10;;
8881;SDS011;4477;48.736;9.176;2023-04-03T14:40:39;2.47;;;2.20;;
8881;SDS011;4477;48.736;9.176;2023-04-03T14:43:09;3.80;;;2.43;;
8881;SDS011;4477;48.736;9.176;2023-04-03T14:45:37;2.87;;;2.07;;
8881;SDS011;4477;48.736;9.176;2023-04-03T14:48:04;2.93;;;1.77;;
8881;SDS011;4477;48.736;9.176;2023-04-03T14:50:35;4.87;;;2.20;;
8881;SDS011;4477;48.736;9.176;2023-04-03T14:53:04;3.60;;;1.93;;
8881;SDS011;4477;48.736;9.176;2023-04-03T14:55:31;2.33;;;1.90;;
8881;SDS011;4477;48.736;9.176;2023-04-03T14:57:58;8.17;;;5.17;;
8881;SDS011;4477;48.736;9.176;2023-04-03T15:00:25;2.77;;;1.90;;
8881;SDS011;4477;48.736;9.176;2023-04-03T15:02:52;3.30;;;1.90;;
8881;SDS011;4477;48.736;9.176;2023-04-03T15:05:19;3.23;;;2.23;;
8881;SDS011;4477;48.736;9.176;2023-04-03T15:07:47;3.33;;;2.07;;
8881;SDS011;4477;48.736;9.176;2023-04-03T15:10:18;3.13;;;2.13;;
8881;SDS011;4477;48.736;9.176;2023-04-03T15:12:48;3.97;;;2.40;;
8881;SDS011;4477;48.736;9.176;2023-04-03T15:15:16;4.47;;;2.10;;
8881;SDS011;4477;48.736;9.176;2023-04-03T15:17:45;3.20;;;2.27;;
8881;SDS011;4477;48.736;9.176;2023-04-03T15:20:14;2.63;;;1.83;;
8881;SDS011;4477;48.736;9.176;2023-04-03T15:22:41;2.77;;;2.40;;
8881;SDS011;4477;48.736;9.176;2023-04-03T15:25:09;5.57;;;2.23;;
8881;SDS011;4477;48.736;9.176;2023-04-03T15:27:38;3.27;;;2.50;;
8881;SDS011;4477;48.736;9.176;2023-04-03T15:30:06;2.80;;;2.20;;
8881;SDS011;4477;48.736;9.176;2023-04-03T15:32:33;2.63;;;1.80;;
8881;SDS011;4477;48.736;9.176;2023-04-03T15:35:00;2.90;;;2.10;;
8881;SDS011;4477;48.736;9.176;2023-04-03T15:37:28;2.47;;;2.07;;
8881;SDS011;4477;48.736;9.176;2023-04-03T15:39:55;4.27;;;2.10;;
8881;SDS011;4477;48.736;9.176;2023-04-03T15:42:21;2.27;;;1.87;;